sensor_id;sensor_type;location;lat;lon;timestamp;P1;durP1;ratioP1;P2;durP2;ratioP2
14205;SDS011;7186;48.800;9.216;2022-11-03T00:02:19;12.97;;;8.23;;
14205;SDS011;7186;48.800;9.216;2022-11-03T00:04:44;13.83;;;7.70;;
14205;SDS011;7186;48.800;9.216;2022-11-03T00:07:09;12.37;;;7.30;;
14205;SDS011;7186;48.800;9.216;2022-11-03T00:09:34;12.47;;;7.87;;
14205;SDS011;7186;48.800;9.216;2022-11-03T00:12:00;12.73;;;7.83;;
14205;SDS011;7186;48.800;9.216;2022-11-03T00:14:25;15.70;;;8.33;;
14205;SDS011;7186;48.800;9.216;2022-11-03T00:16:51;19.27;;;8.53;;
14205;SDS011;7186;48.800;9.216;2022-11-03T00:19:16;17.80;;;7.70;;
14205;SDS011;7186;48.800;9.216;2022-11-03T00:21:41;16.37;;;8.37;;
14205;SDS011;7186;48.800;9.216;2022-11-03T00:24:07;23.37;;;9.10;;
14205;SDS011;7186;48.800;9.216;2022-11-03T00:26:32;14.63;;;8.03;;
14205;SDS011;7186;48.800;9.216;2022-11-03T00:28:59;19.57;;;8.00;;
14205;SDS011;7186;48.800;9.216;2022-11-03T00:31:26;14.43;;;8.23;;
14205;SDS011;7186;48.800;9.216;2022-11-03T00:33:52;11.47;;;8.00;;
14205;SDS011;7186;48.800;9.216;2022-11-03T00:36:18;15.83;;;7.73;;
14205;SDS011;7186;48.800;9.216;2022-11-03T00:38:44;16.57;;;7.93;;
14205;SDS011;7186;48.800;9.216;2022-11-03T00:41:12;14.07;;;7.67;;
14205;SDS011;7186;48.800;9.216;2022-11-03T00:43:37;14.90;;;8.00;;
14205;SDS011;7186;48.800;9.216;2022-11-03T00:46:03;16.17;;;8.47;;
14205;SDS011;7186;48.800;9.216;2022-11-03T00:48:29;15.87;;;8.23;;
14205;SDS011;7186;48.800;9.216;2022-11-03T00:53:26;14.93;;;8.47;;
14205;SDS011;7186;48.800;9.216;2022-11-03T00:55:51;12.77;;;7.73;;
14205;SDS011;7186;48.800;9.216;2022-11-03T00:58:16;16.37;;;8.17;;
14205;SDS011;7186;48.800;9.216;2022-11-03T01:00:43;13.07;;;7.63;;
14205;SDS011;7186;48.800;9.216;2022-11-03T01:03:08;12.17;;;7.67;;
14205;SDS011;7186;48.800;9.216;2022-11-03T01:05:33;11.27;;;7.60;;
14205;SDS011;7186;48.800;9.216;2022-11-03T01:08:17;17.53;;;7.47;;
14205;SDS011;7186;48.800;9.216;2022-11-03T01:10:42;20.03;;;6.77;;
14205;SDS011;7186;48.800;9.216;2022-11-03T01:13:26;12.30;;;7.40;;
14205;SDS011;7186;48.800;9.216;2022-11-03T01:15:55;12.77;;;7.40;;
14205;SDS011;7186;48.800;9.216;2022-11-03T01:18:20;17.50;;;7.60;;
14205;SDS011;7186;48.800;9.216;2022-11-03T01:20:45;12.70;;;6.77;;
14205;SDS011;7186;48.800;9.216;2022-11-03T01:23:10;14.43;;;7.70;;
14205;SDS011;7186;48.800;9.216;2022-11-03T01:25:35;10.73;;;6.33;;
14205;SDS011;7186;48.800;9.216;2022-11-03T01:28:03;12.20;;;7.43;;
14205;SDS011;7186;48.800;9.216;2022-11-03T01:30:28;11.33;;;6.80;;
14205;SDS011;7186;48.800;9.216;2022-11-03T01:32:53;13.27;;;7.10;;
14205;SDS011;7186;48.800;9.216;2022-11-03T01:35:19;9.10;;;6.83;;
14205;SDS011;7186;48.800;9.216;2022-11-03T01:37:45;15.43;;;7.60;;
14205;SDS011;7186;48.800;9.216;2022-11-03T01:40:10;10.60;;;6.47;;
14205;SDS011;7186;48.800;9.216;2022-11-03T01:42:35;15.87;;;7.53;;
14205;SDS011;7186;48.800;9.216;2022-11-03T01:45:01;9.93;;;6.43;;
14205;SDS011;7186;48.800;9.216;2022-11-03T01:47:27;11.13;;;7.27;;
14205;SDS011;7186;48.800;9.216;2022-11-03T01:52:25;9.67;;;7.10;;
14205;SDS011;7186;48.800;9.216;2022-11-03T01:54:54;14.33;;;7.03;;
14205;SDS011;7186;48.800;9.216;2022-11-03T01:57:22;15.07;;;7.07;;
14205;SDS011;7186;48.800;9.216;2022-11-03T01:59:48;12.43;;;7.07;;
14205;SDS011;7186;48.800;9.216;2022-11-03T02:02:14;14.33;;;6.87;;
14205;SDS011;7186;48.800;9.216;2022-11-03T02:04:39;14.40;;;7.07;;
14205;SDS011;7186;48.800;9.216;2022-11-03T02:09:30;12.07;;;6.80;;
14205;SDS011;7186;48.800;9.216;2022-11-03T02:11:56;11.33;;;7.20;;
14205;SDS011;7186;48.800;9.216;2022-11-03T02:14:31;13.33;;;6.57;;
14205;SDS011;7186;48.800;9.216;2022-11-03T02:16:58;15.37;;;6.97;;
14205;SDS011;7186;48.800;9.216;2022-11-03T02:19:31;11.73;;;6.67;;
14205;SDS011;7186;48.800;9.216;2022-11-03T02:24:43;15.40;;;7.30;;
14205;SDS011;7186;48.800;9.216;2022-11-03T02:27:12;13.33;;;8.13;;
14205;SDS011;7186;48.800;9.216;2022-11-03T02:29:38;12.83;;;8.07;;
14205;SDS011;7186;48.800;9.216;2022-11-03T02:32:04;13.60;;;7.40;;
14205;SDS011;7186;48.800;9.216;2022-11-03T02:34:33;12.90;;;7.90;;
14205;SDS011;7186;48.800;9.216;2022-11-03T02:37:03;13.93;;;7.80;;
14205;SDS011;7186;48.800;9.216;2022-11-03T02:39:37;12.67;;;7.00;;
14205;SDS011;7186;48.800;9.216;2022-11-03T02:42:04;12.57;;;7.60;;
14205;SDS011;7186;48.800;9.216;2022-11-03T02:44:31;9.27;;;6.63;;
14205;SDS011;7186;48.800;9.216;2022-11-03T02:46:57;13.10;;;7.10;;
14205;SDS011;7186;48.800;9.216;2022-11-03T02:49:24;10.57;;;6.77;;
14205;SDS011;7186;48.800;9.216;2022-11-03T02:51:59;14.63;;;7.30;;
14205;SDS011;7186;48.800;9.216;2022-11-03T02:54:25;11.40;;;7.23;;
14205;SDS011;7186;48.800;9.216;2022-11-03T02:56:53;10.77;;;7.13;;
14205;SDS011;7186;48.800;9.216;2022-11-03T02:59:24;12.10;;;6.73;;
14205;SDS011;7186;48.800;9.216;2022-11-03T03:01:56;10.13;;;6.77;;
14205;SDS011;7186;48.800;9.216;2022-11-03T03:04:34;17.30;;;8.07;;
14205;SDS011;7186;48.800;9.216;2022-11-03T03:07:05;10.77;;;7.20;;
14205;SDS011;7186;48.800;9.216;2022-11-03T03:09:34;19.03;;;8.77;;
14205;SDS011;7186;48.800;9.216;2022-11-03T03:12:01;12.83;;;8.07;;
14205;SDS011;7186;48.800;9.216;2022-11-03T03:14:32;16.03;;;8.60;;
14205;SDS011;7186;48.800;9.216;2022-11-03T03:17:05;17.70;;;8.53;;
14205;SDS011;7186;48.800;9.216;2022-11-03T03:19:49;15.53;;;8.73;;
14205;SDS011;7186;48.800;9.216;2022-11-03T03:22:22;16.53;;;9.17;;
14205;SDS011;7186;48.800;9.216;2022-11-03T03:24:52;19.50;;;9.33;;
14205;SDS011;7186;48.800;9.216;2022-11-03T03:27:19;15.97;;;8.50;;
14205;SDS011;7186;48.800;9.216;2022-11-03T03:29:57;15.83;;;8.70;;
14205;SDS011;7186;48.800;9.216;2022-11-03T03:32:24;14.93;;;8.17;;
14205;SDS011;7186;48.800;9.216;2022-11-03T03:34:50;15.63;;;8.77;;
14205;SDS011;7186;48.800;9.216;2022-11-03T03:37:16;18.07;;;9.40;;
14205;SDS011;7186;48.800;9.216;2022-11-03T03:39:43;17.27;;;8.87;;
14205;SDS011;7186;48.800;9.216;2022-11-03T03:42:10;15.30;;;8.47;;
14205;SDS011;7186;48.800;9.216;2022-11-03T03:44:36;16.00;;;8.43;;
14205;SDS011;7186;48.800;9.216;2022-11-03T03:47:04;14.53;;;7.90;;
14205;SDS011;7186;48.800;9.216;2022-11-03T03:49:30;16.57;;;8.20;;
14205;SDS011;7186;48.800;9.216;2022-11-03T03:51:55;13.60;;;8.27;;
14205;SDS011;7186;48.800;9.216;2022-11-03T03:54:21;13.63;;;9.07;;
14205;SDS011;7186;48.800;9.216;2022-11-03T03:56:54;14.50;;;8.30;;
14205;SDS011;7186;48.800;9.216;2022-11-03T03:59:20;16.53;;;8.23;;
14205;SDS011;7186;48.800;9.216;2022-11-03T04:01:45;15.57;;;7.97;;
14205;SDS011;7186;48.800;9.216;2022-11-03T04:04:10;17.17;;;7.40;;
14205;SDS011;7186;48.800;9.216;2022-11-03T04:06:35;14.67;;;8.53;;
14205;SDS011;7186;48.800;9.216;2022-11-03T04:09:01;13.50;;;8.50;;
14205;SDS011;7186;48.800;9.216;2022-11-03T04:11:26;11.83;;;7.87;;
14205;SDS011;7186;48.800;9.216;2022-11-03T04:14:10;15.43;;;8.77;;
14205;SDS011;7186;48.800;9.216;2022-11-03T04:16:54;19.00;;;9.43;;
14205;SDS011;7186;48.800;9.216;2022-11-03T04:19:38;14.47;;;8.03;;
14205;SDS011;7186;48.800;9.216;2022-11-03T04:22:23;16.73;;;7.40;;
14205;SDS011;7186;48.800;9.216;2022-11-03T04:24:49;11.77;;;7.70;;
14205;SDS011;7186;48.800;9.216;2022-11-03T04:27:34;14.13;;;7.90;;
14205;SDS011;7186;48.800;9.216;2022-11-03T04:30:08;12.23;;;7.50;;
14205;SDS011;7186;48.800;9.216;2022-11-03T04:32:34;15.47;;;8.30;;
14205;SDS011;7186;48.800;9.216;2022-11-03T04:34:59;14.93;;;8.63;;
14205;SDS011;7186;48.800;9.216;2022-11-03T04:37:27;15.50;;;7.50;;
14205;SDS011;7186;48.800;9.216;2022-11-03T04:39:54;14.80;;;8.20;;
14205;SDS011;7186;48.800;9.216;2022-11-03T04:42:22;18.53;;;8.70;;
14205;SDS011;7186;48.800;9.216;2022-11-03T04:44:48;13.93;;;7.90;;
14205;SDS011;7186;48.800;9.216;2022-11-03T04:47:14;14.77;;;8.30;;
14205;SDS011;7186;48.800;9.216;2022-11-03T04:49:39;13.83;;;7.97;;
14205;SDS011;7186;48.800;9.216;2022-11-03T04:52:08;17.37;;;8.43;;
14205;SDS011;7186;48.800;9.216;2022-11-03T04:54:35;12.33;;;7.40;;
14205;SDS011;7186;48.800;9.216;2022-11-03T04:57:04;9.73;;;7.37;;
14205;SDS011;7186;48.800;9.216;2022-11-03T04:59:29;12.90;;;7.87;;
14205;SDS011;7186;48.800;9.216;2022-11-03T05:01:54;9.30;;;7.10;;
14205;SDS011;7186;48.800;9.216;2022-11-03T05:04:20;14.63;;;8.17;;
14205;SDS011;7186;48.800;9.216;2022-11-03T05:06:48;14.20;;;7.90;;
14205;SDS011;7186;48.800;9.216;2022-11-03T05:09:15;12.97;;;7.33;;
14205;SDS011;7186;48.800;9.216;2022-11-03T05:11:42;13.73;;;7.50;;
14205;SDS011;7186;48.800;9.216;2022-11-03T05:14:15;12.90;;;7.60;;
14205;SDS011;7186;48.800;9.216;2022-11-03T05:16:40;12.87;;;7.53;;
14205;SDS011;7186;48.800;9.216;2022-11-03T05:19:20;11.73;;;8.40;;
14205;SDS011;7186;48.800;9.216;2022-11-03T05:21:46;15.07;;;8.40;;
14205;SDS011;7186;48.800;9.216;2022-11-03T05:24:14;15.03;;;8.40;;
14205;SDS011;7186;48.800;9.216;2022-11-03T05:26:39;14.30;;;8.17;;
14205;SDS011;7186;48.800;9.216;2022-11-03T05:31:33;13.97;;;9.80;;
14205;SDS011;7186;48.800;9.216;2022-11-03T05:34:00;17.77;;;8.77;;
14205;SDS011;7186;48.800;9.216;2022-11-03T05:36:27;14.43;;;9.30;;
14205;SDS011;7186;48.800;9.216;2022-11-03T05:38:54;21.03;;;9.70;;
14205;SDS011;7186;48.800;9.216;2022-11-03T05:43:49;21.90;;;9.40;;
14205;SDS011;7186;48.800;9.216;2022-11-03T05:46:17;18.60;;;9.43;;
14205;SDS011;7186;48.800;9.216;2022-11-03T05:48:42;13.33;;;8.13;;
14205;SDS011;7186;48.800;9.216;2022-11-03T05:51:14;16.03;;;9.00;;
14205;SDS011;7186;48.800;9.216;2022-11-03T05:53:41;15.37;;;9.23;;
14205;SDS011;7186;48.800;9.216;2022-11-03T05:56:09;13.73;;;8.83;;
14205;SDS011;7186;48.800;9.216;2022-11-03T05:58:36;14.10;;;8.30;;
14205;SDS011;7186;48.800;9.216;2022-11-03T06:03:42;17.80;;;8.20;;
14205;SDS011;7186;48.800;9.216;2022-11-03T06:06:15;14.57;;;7.77;;
14205;SDS011;7186;48.800;9.216;2022-11-03T06:08:42;13.73;;;8.73;;
14205;SDS011;7186;48.800;9.216;2022-11-03T06:11:07;17.10;;;8.00;;
14205;SDS011;7186;48.800;9.216;2022-11-03T06:13:33;14.70;;;8.70;;
14205;SDS011;7186;48.800;9.216;2022-11-03T06:16:03;14.13;;;7.90;;
14205;SDS011;7186;48.800;9.216;2022-11-03T06:18:33;12.67;;;7.93;;
14205;SDS011;7186;48.800;9.216;2022-11-03T06:21:06;16.03;;;8.33;;
14205;SDS011;7186;48.800;9.216;2022-11-03T06:23:33;11.73;;;8.37;;
14205;SDS011;7186;48.800;9.216;2022-11-03T06:25:59;11.40;;;6.83;;
14205;SDS011;7186;48.800;9.216;2022-11-03T06:28:28;11.97;;;7.83;;
14205;SDS011;7186;48.800;9.216;2022-11-03T06:30:54;19.90;;;8.63;;
14205;SDS011;7186;48.800;9.216;2022-11-03T06:33:22;19.87;;;8.20;;
14205;SDS011;7186;48.800;9.216;2022-11-03T06:35:49;21.93;;;8.80;;
14205;SDS011;7186;48.800;9.216;2022-11-03T06:38:17;19.77;;;8.00;;
14205;SDS011;7186;48.800;9.216;2022-11-03T06:40:43;14.40;;;7.83;;
14205;SDS011;7186;48.800;9.216;2022-11-03T06:43:12;14.30;;;7.80;;
14205;SDS011;7186;48.800;9.216;2022-11-03T06:45:38;19.17;;;9.10;;
14205;SDS011;7186;48.800;9.216;2022-11-03T06:48:10;18.63;;;8.93;;
14205;SDS011;7186;48.800;9.216;2022-11-03T06:50:37;15.63;;;9.20;;
14205;SDS011;7186;48.800;9.216;2022-11-03T06:53:03;15.30;;;9.07;;
14205;SDS011;7186;48.800;9.216;2022-11-03T06:55:28;19.13;;;9.37;;
14205;SDS011;7186;48.800;9.216;2022-11-03T06:57:57;16.87;;;9.57;;
14205;SDS011;7186;48.800;9.216;2022-11-03T07:00:26;15.17;;;8.17;;
14205;SDS011;7186;48.800;9.216;2022-11-03T07:05:36;15.47;;;8.43;;
14205;SDS011;7186;48.800;9.216;2022-11-03T07:08:03;13.30;;;7.73;;
14205;SDS011;7186;48.800;9.216;2022-11-03T07:10:34;13.10;;;8.47;;
14205;SDS011;7186;48.800;9.216;2022-11-03T07:13:00;16.33;;;8.57;;
14205;SDS011;7186;48.800;9.216;2022-11-03T07:15:30;16.27;;;8.80;;
14205;SDS011;7186;48.800;9.216;2022-11-03T07:17:57;16.57;;;8.57;;
14205;SDS011;7186;48.800;9.216;2022-11-03T07:20:22;18.60;;;9.10;;
14205;SDS011;7186;48.800;9.216;2022-11-03T07:22:48;20.10;;;8.93;;
14205;SDS011;7186;48.800;9.216;2022-11-03T07:25:15;17.83;;;8.77;;
14205;SDS011;7186;48.800;9.216;2022-11-03T07:27:41;18.10;;;8.97;;
14205;SDS011;7186;48.800;9.216;2022-11-03T07:32:32;18.83;;;8.40;;
14205;SDS011;7186;48.800;9.216;2022-11-03T07:35:20;17.17;;;8.00;;
14205;SDS011;7186;48.800;9.216;2022-11-03T07:37:47;12.23;;;7.67;;
14205;SDS011;7186;48.800;9.216;2022-11-03T07:40:17;14.20;;;7.90;;
14205;SDS011;7186;48.800;9.216;2022-11-03T07:42:43;15.00;;;8.17;;
14205;SDS011;7186;48.800;9.216;2022-11-03T07:45:54;12.43;;;7.83;;
14205;SDS011;7186;48.800;9.216;2022-11-03T07:47:54;16.60;;;8.07;;
14205;SDS011;7186;48.800;9.216;2022-11-03T07:50:19;11.50;;;7.30;;
14205;SDS011;7186;48.800;9.216;2022-11-03T07:52:44;15.03;;;7.30;;
14205;SDS011;7186;48.800;9.216;2022-11-03T07:55:10;9.83;;;7.53;;
14205;SDS011;7186;48.800;9.216;2022-11-03T07:57:35;12.00;;;7.13;;
14205;SDS011;7186;48.800;9.216;2022-11-03T08:00:03;12.97;;;7.17;;
14205;SDS011;7186;48.800;9.216;2022-11-03T08:04:53;15.00;;;8.23;;
14205;SDS011;7186;48.800;9.216;2022-11-03T08:07:19;13.13;;;7.20;;
14205;SDS011;7186;48.800;9.216;2022-11-03T08:09:44;15.83;;;9.00;;
14205;SDS011;7186;48.800;9.216;2022-11-03T08:12:09;12.00;;;6.90;;
14205;SDS011;7186;48.800;9.216;2022-11-03T08:14:34;14.20;;;7.27;;
14205;SDS011;7186;48.800;9.216;2022-11-03T08:17:01;14.87;;;7.73;;
14205;SDS011;7186;48.800;9.216;2022-11-03T08:19:27;15.50;;;7.87;;
14205;SDS011;7186;48.800;9.216;2022-11-03T08:21:52;12.20;;;7.50;;
14205;SDS011;7186;48.800;9.216;2022-11-03T08:24:17;12.87;;;7.93;;
14205;SDS011;7186;48.800;9.216;2022-11-03T08:26:42;14.20;;;7.57;;
14205;SDS011;7186;48.800;9.216;2022-11-03T08:29:07;14.00;;;7.73;;
14205;SDS011;7186;48.800;9.216;2022-11-03T08:31:33;14.23;;;8.00;;
14205;SDS011;7186;48.800;9.216;2022-11-03T08:33:59;12.73;;;7.50;;
14205;SDS011;7186;48.800;9.216;2022-11-03T08:36:24;15.80;;;8.03;;
14205;SDS011;7186;48.800;9.216;2022-11-03T08:38:49;13.80;;;7.30;;
14205;SDS011;7186;48.800;9.216;2022-11-03T08:41:14;12.97;;;7.90;;
14205;SDS011;7186;48.800;9.216;2022-11-03T08:43:40;14.83;;;8.17;;
14205;SDS011;7186;48.800;9.216;2022-11-03T08:46:05;11.83;;;7.30;;
14205;SDS011;7186;48.800;9.216;2022-11-03T08:48:30;13.33;;;7.30;;
14205;SDS011;7186;48.800;9.216;2022-11-03T08:50:55;14.57;;;7.80;;
14205;SDS011;7186;48.800;9.216;2022-11-03T08:53:21;14.57;;;8.23;;
14205;SDS011;7186;48.800;9.216;2022-11-03T08:55:47;12.90;;;7.60;;
14205;SDS011;7186;48.800;9.216;2022-11-03T08:58:12;13.03;;;8.37;;
14205;SDS011;7186;48.800;9.216;2022-11-03T09:00:39;16.30;;;7.97;;
14205;SDS011;7186;48.800;9.216;2022-11-03T09:03:04;13.40;;;8.53;;
14205;SDS011;7186;48.800;9.216;2022-11-03T09:05:29;11.87;;;7.50;;
14205;SDS011;7186;48.800;9.216;2022-11-03T09:07:55;17.63;;;7.97;;
14205;SDS011;7186;48.800;9.216;2022-11-03T09:10:23;12.07;;;7.10;;
14205;SDS011;7186;48.800;9.216;2022-11-03T09:12:48;13.93;;;7.70;;
14205;SDS011;7186;48.800;9.216;2022-11-03T09:15:14;14.20;;;7.70;;
14205;SDS011;7186;48.800;9.216;2022-11-03T09:17:39;15.67;;;7.70;;
14205;SDS011;7186;48.800;9.216;2022-11-03T09:20:05;14.63;;;8.00;;
14205;SDS011;7186;48.800;9.216;2022-11-03T09:22:30;14.93;;;8.20;;
14205;SDS011;7186;48.800;9.216;2022-11-03T09:24:55;16.80;;;8.30;;
14205;SDS011;7186;48.800;9.216;2022-11-03T09:27:20;14.67;;;8.17;;
14205;SDS011;7186;48.800;9.216;2022-11-03T09:29:46;14.03;;;8.20;;
14205;SDS011;7186;48.800;9.216;2022-11-03T09:32:11;15.50;;;8.07;;
14205;SDS011;7186;48.800;9.216;2022-11-03T09:34:36;14.97;;;7.60;;
14205;SDS011;7186;48.800;9.216;2022-11-03T09:37:01;18.70;;;7.50;;
14205;SDS011;7186;48.800;9.216;2022-11-03T09:39:27;13.73;;;6.67;;
14205;SDS011;7186;48.800;9.216;2022-11-03T09:41:53;9.93;;;6.40;;
14205;SDS011;7186;48.800;9.216;2022-11-03T09:44:19;13.07;;;6.50;;
14205;SDS011;7186;48.800;9.216;2022-11-03T09:46:44;16.13;;;7.60;;
14205;SDS011;7186;48.800;9.216;2022-11-03T09:49:11;12.83;;;6.57;;
14205;SDS011;7186;48.800;9.216;2022-11-03T09:51:38;16.90;;;8.33;;
14205;SDS011;7186;48.800;9.216;2022-11-03T09:54:03;13.90;;;7.10;;
14205;SDS011;7186;48.800;9.216;2022-11-03T09:56:29;11.00;;;6.87;;
14205;SDS011;7186;48.800;9.216;2022-11-03T09:58:55;13.97;;;6.60;;
14205;SDS011;7186;48.800;9.216;2022-11-03T10:01:21;17.17;;;7.03;;
14205;SDS011;7186;48.800;9.216;2022-11-03T10:03:49;17.50;;;6.80;;
14205;SDS011;7186;48.800;9.216;2022-11-03T10:06:14;13.93;;;6.60;;
14205;SDS011;7186;48.800;9.216;2022-11-03T10:08:43;22.50;;;7.53;;
14205;SDS011;7186;48.800;9.216;2022-11-03T10:11:09;12.17;;;6.73;;
14205;SDS011;7186;48.800;9.216;2022-11-03T10:13:36;15.07;;;6.00;;
14205;SDS011;7186;48.800;9.216;2022-11-03T10:16:03;18.17;;;7.07;;
14205;SDS011;7186;48.800;9.216;2022-11-03T10:18:29;10.73;;;6.70;;
14205;SDS011;7186;48.800;9.216;2022-11-03T10:20:54;14.13;;;6.83;;
14205;SDS011;7186;48.800;9.216;2022-11-03T10:23:20;11.13;;;6.63;;
14205;SDS011;7186;48.800;9.216;2022-11-03T10:25:45;11.80;;;6.63;;
14205;SDS011;7186;48.800;9.216;2022-11-03T10:30:46;11.97;;;6.60;;
14205;SDS011;7186;48.800;9.216;2022-11-03T10:35:49;10.07;;;6.03;;
14205;SDS011;7186;48.800;9.216;2022-11-03T10:38:24;13.20;;;6.43;;
14205;SDS011;7186;48.800;9.216;2022-11-03T10:40:54;14.60;;;6.53;;
14205;SDS011;7186;48.800;9.216;2022-11-03T10:43:20;9.77;;;6.20;;
14205;SDS011;7186;48.800;9.216;2022-11-03T10:45:45;9.93;;;5.90;;
14205;SDS011;7186;48.800;9.216;2022-11-03T10:48:10;9.13;;;6.07;;
14205;SDS011;7186;48.800;9.216;2022-11-03T10:50:37;15.33;;;7.17;;
14205;SDS011;7186;48.800;9.216;2022-11-03T10:53:03;9.67;;;6.50;;
14205;SDS011;7186;48.800;9.216;2022-11-03T10:55:28;12.40;;;6.30;;
14205;SDS011;7186;48.800;9.216;2022-11-03T10:57:54;12.47;;;6.77;;
14205;SDS011;7186;48.800;9.216;2022-11-03T11:00:20;13.20;;;7.03;;
14205;SDS011;7186;48.800;9.216;2022-11-03T11:02:46;15.13;;;7.13;;
14205;SDS011;7186;48.800;9.216;2022-11-03T11:05:16;16.27;;;6.43;;
14205;SDS011;7186;48.800;9.216;2022-11-03T11:07:43;15.97;;;7.20;;
14205;SDS011;7186;48.800;9.216;2022-11-03T11:10:14;12.27;;;6.40;;
14205;SDS011;7186;48.800;9.216;2022-11-03T11:13:03;15.33;;;7.17;;
14205;SDS011;7186;48.800;9.216;2022-11-03T11:15:45;11.73;;;6.63;;
14205;SDS011;7186;48.800;9.216;2022-11-03T11:20:57;11.30;;;7.40;;
14205;SDS011;7186;48.800;9.216;2022-11-03T11:26:12;13.07;;;6.90;;
14205;SDS011;7186;48.800;9.216;2022-11-03T11:28:41;14.77;;;7.87;;
14205;SDS011;7186;48.800;9.216;2022-11-03T11:36:41;13.47;;;6.90;;
14205;SDS011;7186;48.800;9.216;2022-11-03T11:39:52;12.87;;;6.73;;
14205;SDS011;7186;48.800;9.216;2022-11-03T11:55:02;10.60;;;6.87;;
14205;SDS011;7186;48.800;9.216;2022-11-03T11:57:29;12.23;;;6.97;;
14205;SDS011;7186;48.800;9.216;2022-11-03T11:59:56;10.67;;;6.40;;
14205;SDS011;7186;48.800;9.216;2022-11-03T12:02:24;13.67;;;7.93;;
14205;SDS011;7186;48.800;9.216;2022-11-03T12:04:53;13.60;;;6.97;;
14205;SDS011;7186;48.800;9.216;2022-11-03T12:07:33;12.87;;;6.63;;
14205;SDS011;7186;48.800;9.216;2022-11-03T12:10:08;15.97;;;7.27;;
14205;SDS011;7186;48.800;9.216;2022-11-03T12:12:33;14.10;;;6.73;;
14205;SDS011;7186;48.800;9.216;2022-11-03T12:14:59;12.90;;;7.33;;
14205;SDS011;7186;48.800;9.216;2022-11-03T12:19:53;17.13;;;7.17;;
14205;SDS011;7186;48.800;9.216;2022-11-03T12:24:59;15.83;;;7.10;;
14205;SDS011;7186;48.800;9.216;2022-11-03T12:29:51;12.30;;;7.03;;
14205;SDS011;7186;48.800;9.216;2022-11-03T12:32:16;14.33;;;6.90;;
14205;SDS011;7186;48.800;9.216;2022-11-03T12:34:41;17.80;;;6.87;;
14205;SDS011;7186;48.800;9.216;2022-11-03T12:37:07;10.67;;;6.30;;
14205;SDS011;7186;48.800;9.216;2022-11-03T12:39:33;10.70;;;5.87;;
14205;SDS011;7186;48.800;9.216;2022-11-03T12:41:58;12.93;;;5.67;;
14205;SDS011;7186;48.800;9.216;2022-11-03T12:44:24;10.60;;;5.33;;
14205;SDS011;7186;48.800;9.216;2022-11-03T12:46:50;13.13;;;5.73;;
14205;SDS011;7186;48.800;9.216;2022-11-03T12:49:15;14.80;;;7.67;;
14205;SDS011;7186;48.800;9.216;2022-11-03T12:51:40;17.03;;;6.23;;
14205;SDS011;7186;48.800;9.216;2022-11-03T12:54:06;18.63;;;7.10;;
14205;SDS011;7186;48.800;9.216;2022-11-03T12:56:31;13.93;;;6.37;;
14205;SDS011;7186;48.800;9.216;2022-11-03T12:58:56;12.83;;;6.20;;
14205;SDS011;7186;48.800;9.216;2022-11-03T13:01:21;11.30;;;6.37;;
14205;SDS011;7186;48.800;9.216;2022-11-03T13:03:47;13.00;;;6.37;;
14205;SDS011;7186;48.800;9.216;2022-11-03T13:06:12;18.20;;;6.73;;
14205;SDS011;7186;48.800;9.216;2022-11-03T13:08:38;12.17;;;6.47;;
14205;SDS011;7186;48.800;9.216;2022-11-03T13:11:04;13.63;;;6.87;;
14205;SDS011;7186;48.800;9.216;2022-11-03T13:13:49;13.80;;;6.83;;
14205;SDS011;7186;48.800;9.216;2022-11-03T13:16:14;15.40;;;7.67;;
14205;SDS011;7186;48.800;9.216;2022-11-03T13:18:39;15.10;;;7.60;;
14205;SDS011;7186;48.800;9.216;2022-11-03T13:21:04;18.83;;;7.57;;
14205;SDS011;7186;48.800;9.216;2022-11-03T13:23:30;17.77;;;8.03;;
14205;SDS011;7186;48.800;9.216;2022-11-03T13:25:55;14.43;;;8.03;;
14205;SDS011;7186;48.800;9.216;2022-11-03T13:28:20;12.60;;;7.70;;
14205;SDS011;7186;48.800;9.216;2022-11-03T13:30:46;18.87;;;8.50;;
14205;SDS011;7186;48.800;9.216;2022-11-03T13:33:11;16.43;;;8.30;;
14205;SDS011;7186;48.800;9.216;2022-11-03T13:35:36;15.43;;;6.87;;
14205;SDS011;7186;48.800;9.216;2022-11-03T13:38:02;10.67;;;6.60;;
14205;SDS011;7186;48.800;9.216;2022-11-03T13:40:27;17.27;;;7.40;;
14205;SDS011;7186;48.800;9.216;2022-11-03T13:42:52;10.77;;;6.47;;
14205;SDS011;7186;48.800;9.216;2022-11-03T13:45:17;11.30;;;6.47;;
14205;SDS011;7186;48.800;9.216;2022-11-03T13:47:43;10.33;;;6.07;;
14205;SDS011;7186;48.800;9.216;2022-11-03T13:50:08;11.20;;;7.13;;
14205;SDS011;7186;48.800;9.216;2022-11-03T13:52:33;15.53;;;7.67;;
14205;SDS011;7186;48.800;9.216;2022-11-03T13:54:58;14.77;;;7.90;;
14205;SDS011;7186;48.800;9.216;2022-11-03T13:57:24;15.30;;;7.47;;
14205;SDS011;7186;48.800;9.216;2022-11-03T13:59:49;16.43;;;7.57;;
14205;SDS011;7186;48.800;9.216;2022-11-03T14:02:15;16.50;;;7.20;;
14205;SDS011;7186;48.800;9.216;2022-11-03T14:04:40;17.97;;;8.57;;
14205;SDS011;7186;48.800;9.216;2022-11-03T14:07:05;15.87;;;7.27;;
14205;SDS011;7186;48.800;9.216;2022-11-03T14:09:31;13.17;;;7.17;;
14205;SDS011;7186;48.800;9.216;2022-11-03T14:11:56;14.67;;;7.53;;
14205;SDS011;7186;48.800;9.216;2022-11-03T14:14:40;17.37;;;7.90;;
14205;SDS011;7186;48.800;9.216;2022-11-03T14:17:05;14.70;;;7.50;;
14205;SDS011;7186;48.800;9.216;2022-11-03T14:19:30;16.17;;;7.97;;
14205;SDS011;7186;48.800;9.216;2022-11-03T14:21:55;17.73;;;8.60;;
14205;SDS011;7186;48.800;9.216;2022-11-03T14:24:21;17.40;;;8.90;;
14205;SDS011;7186;48.800;9.216;2022-11-03T14:26:46;13.93;;;9.60;;
14205;SDS011;7186;48.800;9.216;2022-11-03T14:29:12;21.07;;;9.27;;
14205;SDS011;7186;48.800;9.216;2022-11-03T14:31:37;17.73;;;8.97;;
14205;SDS011;7186;48.800;9.216;2022-11-03T14:34:02;20.23;;;9.87;;
14205;SDS011;7186;48.800;9.216;2022-11-03T14:36:27;17.13;;;8.93;;
14205;SDS011;7186;48.800;9.216;2022-11-03T14:38:53;16.87;;;9.10;;
14205;SDS011;7186;48.800;9.216;2022-11-03T14:41:18;17.63;;;8.53;;
14205;SDS011;7186;48.800;9.216;2022-11-03T14:44:02;16.80;;;8.87;;
14205;SDS011;7186;48.800;9.216;2022-11-03T14:46:28;14.53;;;8.10;;
14205;SDS011;7186;48.800;9.216;2022-11-03T14:48:53;17.67;;;8.20;;
14205;SDS011;7186;48.800;9.216;2022-11-03T14:51:18;19.37;;;8.20;;
14205;SDS011;7186;48.800;9.216;2022-11-03T14:53:43;16.57;;;8.87;;
14205;SDS011;7186;48.800;9.216;2022-11-03T14:56:09;14.97;;;8.30;;
14205;SDS011;7186;48.800;9.216;2022-11-03T14:58:34;14.37;;;8.30;;
14205;SDS011;7186;48.800;9.216;2022-11-03T15:00:59;14.07;;;8.63;;
14205;SDS011;7186;48.800;9.216;2022-11-03T15:03:24;15.70;;;9.83;;
14205;SDS011;7186;48.800;9.216;2022-11-03T15:05:50;16.40;;;9.23;;
14205;SDS011;7186;48.800;9.216;2022-11-03T15:08:18;15.40;;;8.80;;
14205;SDS011;7186;48.800;9.216;2022-11-03T15:10:43;10.33;;;7.40;;
14205;SDS011;7186;48.800;9.216;2022-11-03T15:13:09;15.33;;;8.17;;
14205;SDS011;7186;48.800;9.216;2022-11-03T15:15:34;12.53;;;7.37;;
14205;SDS011;7186;48.800;9.216;2022-11-03T15:18:02;14.70;;;8.07;;
14205;SDS011;7186;48.800;9.216;2022-11-03T15:20:28;13.03;;;7.97;;
14205;SDS011;7186;48.800;9.216;2022-11-03T15:22:53;13.27;;;7.37;;
14205;SDS011;7186;48.800;9.216;2022-11-03T15:25:18;13.13;;;7.50;;
14205;SDS011;7186;48.800;9.216;2022-11-03T15:27:43;12.53;;;7.80;;
14205;SDS011;7186;48.800;9.216;2022-11-03T15:30:09;13.00;;;7.30;;
14205;SDS011;7186;48.800;9.216;2022-11-03T15:32:34;10.57;;;7.67;;
14205;SDS011;7186;48.800;9.216;2022-11-03T15:35:00;12.40;;;6.73;;
14205;SDS011;7186;48.800;9.216;2022-11-03T15:37:25;11.93;;;6.70;;
14205;SDS011;7186;48.800;9.216;2022-11-03T15:39:50;13.37;;;6.83;;
14205;SDS011;7186;48.800;9.216;2022-11-03T15:42:15;11.13;;;6.20;;
14205;SDS011;7186;48.800;9.216;2022-11-03T15:44:41;12.27;;;7.13;;
14205;SDS011;7186;48.800;9.216;2022-11-03T15:47:06;11.37;;;6.23;;
14205;SDS011;7186;48.800;9.216;2022-11-03T15:49:31;10.43;;;5.60;;
14205;SDS011;7186;48.800;9.216;2022-11-03T15:51:56;8.63;;;6.20;;